createdAt,value
2022-12-03T00:00:30.000Z,61.69
2022-12-03T00:02:57.651Z,61.52
2022-12-03T00:05:25.764Z,61.54
2022-12-03T00:07:53.333Z,62.44
2022-12-03T00:10:21.604Z,62.55
2022-12-03T00:12:49.039Z,61.48
2022-12-03T00:15:16.582Z,61.41
2022-12-03T00:17:44.051Z,61.77
2022-12-03T00:20:19.023Z,62.08
2022-12-03T00:22:46.901Z,61.30
2022-12-03T00:25:14.587Z,61.62
2022-12-03T00:27:43.641Z,61.58
2022-12-03T00:30:13.997Z,61.62
2022-12-03T00:35:26.629Z,62.47
2022-12-03T00:37:55.111Z,62.54
2022-12-03T00:40:22.582Z,62.59
2022-12-03T00:42:50.005Z,62.65
2022-12-03T00:45:17.665Z,63.24
2022-12-03T00:47:45.119Z,63.28
2022-12-03T00:50:12.898Z,63.23
2022-12-03T00:52:40.356Z,62.76
2022-12-03T00:55:16.184Z,62.77
2022-12-03T00:57:43.702Z,62.35
2022-12-03T01:00:13.203Z,62.29
2022-12-03T01:02:40.731Z,62.32
2022-12-03T01:05:08.617Z,62.42
2022-12-03T01:07:36.675Z,63.09
2022-12-03T01:10:05.142Z,62.79
2022-12-03T01:12:32.725Z,63.05
2022-12-03T01:15:00.164Z,62.72
2022-12-03T01:17:27.736Z,63.00
2022-12-03T01:19:55.303Z,63.07
2022-12-03T01:22:22.876Z,64.24
2022-12-03T01:24:50.383Z,63.24
2022-12-03T01:27:18.083Z,63.39
2022-12-03T01:29:45.618Z,63.47
2022-12-03T01:32:19.905Z,63.24
2022-12-03T01:34:52.540Z,62.73
2022-12-03T01:37:22.603Z,63.49
2022-12-03T01:39:50.584Z,63.10
2022-12-03T01:42:24.240Z,62.86
2022-12-03T01:44:54.509Z,63.54
2022-12-03T01:47:27.024Z,63.51
2022-12-03T01:50:00.431Z,64.20
2022-12-03T01:52:31.892Z,63.25
2022-12-03T01:55:02.768Z,63.86
2022-12-03T01:57:44.001Z,64.18
2022-12-03T02:00:18.141Z,63.54
2022-12-03T02:02:47.081Z,63.60
2022-12-03T02:05:21.354Z,63.67
2022-12-03T02:07:49.185Z,63.30
2022-12-03T02:10:20.291Z,63.35
2022-12-03T02:12:54.406Z,63.23
2022-12-03T02:15:22.143Z,63.60
2022-12-03T02:17:49.851Z,63.67
2022-12-03T02:20:17.597Z,63.63
2022-12-03T02:22:59.270Z,62.43
2022-12-03T02:25:32.316Z,62.42
2022-12-03T02:28:00.505Z,61.94
2022-12-03T02:30:30.358Z,61.68
2022-12-03T02:32:58.736Z,62.65
2022-12-03T02:35:29.203Z,62.23
2022-12-03T02:38:22.254Z,61.48
2022-12-03T02:41:31.858Z,61.19
2022-12-03T02:44:00.193Z,61.76
2022-12-03T02:46:28.017Z,61.35
2022-12-03T02:48:55.825Z,61.55
2022-12-03T02:51:23.465Z,61.33
2022-12-03T02:53:54.299Z,62.03
2022-12-03T02:56:27.474Z,61.48
2022-12-03T02:58:59.127Z,61.91
2022-12-03T03:01:26.968Z,61.71
2022-12-03T03:03:55.121Z,61.37
2022-12-03T03:06:23.768Z,61.38
2022-12-03T03:08:51.757Z,61.52
2022-12-03T03:11:19.240Z,61.57
2022-12-03T03:13:47.135Z,60.67
2022-12-03T03:16:14.647Z,60.89
2022-12-03T03:18:42.772Z,60.61
2022-12-03T03:21:10.662Z,60.88
2022-12-03T03:23:38.180Z,60.97
2022-12-03T03:26:09.252Z,59.88
2022-12-03T03:28:39.995Z,59.99
2022-12-03T03:31:09.616Z,59.55
2022-12-03T03:33:40.048Z,59.33
2022-12-03T03:36:08.559Z,59.77
2022-12-03T03:38:37.366Z,60.04
2022-12-03T03:41:07.953Z,60.38
2022-12-03T03:43:38.191Z,60.25
2022-12-03T03:46:07.728Z,59.94
2022-12-03T03:48:36.128Z,59.63
2022-12-03T03:53:53.241Z,61.24
2022-12-03T03:56:21.760Z,61.09
2022-12-03T03:58:49.461Z,60.56
2022-12-03T04:01:18.558Z,61.10
2022-12-03T04:03:46.412Z,60.67
2022-12-03T04:06:18.559Z,60.51
2022-12-03T04:08:46.132Z,59.69
2022-12-03T04:11:31.794Z,60.20
2022-12-03T04:13:59.391Z,60.44
2022-12-03T04:16:26.919Z,60.27
2022-12-03T04:18:54.531Z,60.28
2022-12-03T04:21:42.205Z,60.86
2022-12-03T04:24:11.609Z,60.39
2022-12-03T04:26:57.257Z,59.98
2022-12-03T04:29:24.920Z,59.68
2022-12-03T04:32:10.669Z,59.85
2022-12-03T04:34:57.165Z,60.01
2022-12-03T04:37:24.827Z,60.38
2022-12-03T04:39:52.422Z,60.13
2022-12-03T04:42:19.988Z,60.78
2022-12-03T04:44:47.606Z,60.80
2022-12-03T04:47:20.898Z,61.21
2022-12-03T04:52:33.282Z,61.51
2022-12-03T04:55:00.740Z,61.55
2022-12-03T04:57:28.278Z,61.50
2022-12-03T04:59:55.662Z,61.29
2022-12-03T05:02:24.263Z,61.71
2022-12-03T05:04:51.931Z,61.14
2022-12-03T05:07:19.877Z,61.52
2022-12-03T05:09:47.388Z,61.63
2022-12-03T05:12:22.340Z,61.75
2022-12-03T05:14:49.789Z,61.96
2022-12-03T05:17:17.318Z,61.61
2022-12-03T05:20:18.637Z,61.52
2022-12-03T05:22:46.218Z,61.38
2022-12-03T05:25:13.689Z,61.73
2022-12-03T05:27:41.484Z,61.83
2022-12-03T05:30:09.501Z,61.67
2022-12-03T05:32:36.996Z,61.65
2022-12-03T05:35:04.760Z,63.57
2022-12-03T05:37:32.481Z,63.21
2022-12-03T05:39:59.892Z,62.63
2022-12-03T05:42:45.726Z,62.79
2022-12-03T05:45:13.202Z,62.87
2022-12-03T05:47:40.637Z,62.85
2022-12-03T05:50:08.758Z,62.67
2022-12-03T05:52:36.191Z,62.97
2022-12-03T05:55:04.200Z,62.87
2022-12-03T05:57:31.618Z,63.31
2022-12-03T05:59:59.089Z,62.98
2022-12-03T06:02:26.606Z,62.81
2022-12-03T06:04:54.486Z,63.14
2022-12-03T06:07:22.335Z,62.41
2022-12-03T06:09:49.811Z,62.88
2022-12-03T06:12:17.391Z,62.49
2022-12-03T06:14:44.915Z,62.15
2022-12-03T06:17:12.340Z,62.01
2022-12-03T06:19:39.981Z,62.52
2022-12-03T06:22:07.558Z,62.44
2022-12-03T06:24:35.115Z,62.41
2022-12-03T06:27:04.265Z,61.57
2022-12-03T06:29:31.982Z,61.94
2022-12-03T06:32:00.080Z,61.38
2022-12-03T06:34:27.579Z,61.18
2022-12-03T06:36:55.090Z,60.45
2022-12-03T06:39:23.301Z,60.66
2022-12-03T06:41:51.025Z,61.09
2022-12-03T06:44:18.524Z,60.77
2022-12-03T06:46:46.094Z,61.09
2022-12-03T06:49:13.806Z,60.16
2022-12-03T06:51:41.540Z,60.50
2022-12-03T06:54:09.410Z,61.23
2022-12-03T06:56:41.878Z,59.41
2022-12-03T06:59:12.608Z,60.54
2022-12-03T07:01:40.262Z,60.20
2022-12-03T07:04:07.872Z,60.34
2022-12-03T07:09:19.611Z,60.97
2022-12-03T07:11:47.181Z,60.68
2022-12-03T07:14:15.427Z,60.34
2022-12-03T07:16:43.964Z,59.89
2022-12-03T07:19:12.000Z,58.54
2022-12-03T07:21:39.772Z,59.34
2022-12-03T07:24:07.795Z,59.88
2022-12-03T07:26:35.422Z,59.18
2022-12-03T07:29:02.991Z,58.86
2022-12-03T07:31:30.880Z,59.19
2022-12-03T07:33:58.488Z,57.95
2022-12-03T07:36:25.910Z,58.88
2022-12-03T07:38:53.454Z,57.40
2022-12-03T07:41:21.023Z,57.77
2022-12-03T07:43:48.600Z,57.47
2022-12-03T07:46:16.192Z,57.47
2022-12-03T07:48:43.826Z,57.39
2022-12-03T07:51:15.244Z,56.59
2022-12-03T07:53:43.263Z,56.39
2022-12-03T07:56:11.409Z,56.71
2022-12-03T07:58:57.757Z,56.29
2022-12-03T08:01:25.419Z,55.96
2022-12-03T08:03:52.927Z,55.80
2022-12-03T08:06:20.465Z,55.61
2022-12-03T08:08:47.980Z,55.69
2022-12-03T08:11:15.671Z,55.39
2022-12-03T08:13:43.716Z,54.69
2022-12-03T08:16:22.728Z,53.73
2022-12-03T08:18:51.724Z,54.07
2022-12-03T08:21:21.166Z,52.54
2022-12-03T08:23:50.966Z,52.57
2022-12-03T08:26:21.303Z,52.77
2022-12-03T08:28:49.147Z,53.07
2022-12-03T08:31:32.797Z,52.27
2022-12-03T08:34:20.080Z,51.85
2022-12-03T08:36:50.731Z,52.05
2022-12-03T08:39:27.513Z,52.07
2022-12-03T08:42:18.866Z,51.53
2022-12-03T08:44:46.355Z,51.62
2022-12-03T08:47:13.732Z,51.36
2022-12-03T08:49:41.619Z,51.00
2022-12-03T08:52:34.087Z,51.16
2022-12-03T08:55:31.799Z,51.02
2022-12-03T08:58:00.033Z,50.83
2022-12-03T09:00:27.617Z,50.84
2022-12-03T09:03:01.885Z,50.53
2022-12-03T09:05:32.731Z,51.04
2022-12-03T09:08:00.373Z,50.95
2022-12-03T09:10:27.989Z,50.34
2022-12-03T09:12:55.593Z,49.59
2022-12-03T09:15:23.049Z,49.86
2022-12-03T09:20:33.058Z,49.70
2022-12-03T09:23:00.773Z,49.74
2022-12-03T09:25:28.432Z,49.69
2022-12-03T09:27:55.804Z,49.15
2022-12-03T09:30:23.535Z,49.77
2022-12-03T09:32:51.048Z,48.53
2022-12-03T09:35:18.936Z,48.07
2022-12-03T09:37:46.418Z,49.52
2022-12-03T09:40:14.414Z,48.21
2022-12-03T09:42:42.389Z,49.21
2022-12-03T09:45:12.636Z,48.91
2022-12-03T09:47:46.706Z,48.56
2022-12-03T09:50:16.499Z,48.74
2022-12-03T09:52:45.462Z,48.66
2022-12-03T09:55:21.401Z,49.01
2022-12-03T09:57:49.074Z,48.69
2022-12-03T10:00:19.153Z,48.20
2022-12-03T10:02:48.090Z,49.14
2022-12-03T10:05:15.927Z,47.75
2022-12-03T10:07:43.682Z,48.34
2022-12-03T10:10:18.564Z,48.25
2022-12-03T10:12:47.003Z,47.93
2022-12-03T10:18:33.538Z,47.83
2022-12-03T10:21:03.965Z,48.08
2022-12-03T10:23:31.978Z,48.00
2022-12-03T10:26:03.211Z,48.02
2022-12-03T10:28:37.248Z,48.35
2022-12-03T10:31:07.676Z,48.53
2022-12-03T10:33:42.006Z,48.50
2022-12-03T10:36:26.068Z,47.31
2022-12-03T10:39:07.911Z,47.63
2022-12-03T10:41:35.538Z,47.31
2022-12-03T10:44:25.793Z,47.18
2022-12-03T10:47:11.982Z,47.24
2022-12-03T10:49:40.802Z,47.35
2022-12-03T10:52:26.005Z,46.70
2022-12-03T10:54:53.989Z,46.93
2022-12-03T10:57:22.706Z,46.60
2022-12-03T10:59:50.457Z,46.29
2022-12-03T11:02:25.424Z,47.15
2022-12-03T11:04:53.462Z,46.88
2022-12-03T11:07:22.578Z,46.17
2022-12-03T11:09:50.578Z,46.28
2022-12-03T11:12:18.014Z,45.84
2022-12-03T11:14:52.836Z,45.96
2022-12-03T11:17:40.452Z,45.51
2022-12-03T11:20:23.414Z,46.38
2022-12-03T11:22:52.691Z,46.01
2022-12-03T11:25:26.350Z,45.61
2022-12-03T11:28:12.292Z,45.98
2022-12-03T11:30:52.031Z,46.41
2022-12-03T11:33:29.456Z,45.97
2022-12-03T11:36:06.043Z,46.29
2022-12-03T11:38:50.881Z,46.40
2022-12-03T11:41:33.147Z,45.61
2022-12-03T11:44:04.490Z,45.79
2022-12-03T11:46:38.152Z,45.76
2022-12-03T11:49:34.080Z,45.27
2022-12-03T11:52:12.335Z,45.86
2022-12-03T11:54:40.144Z,45.64
2022-12-03T11:57:26.537Z,45.37
2022-12-03T12:00:22.012Z,45.19
2022-12-03T12:02:51.456Z,45.24
2022-12-03T12:05:29.861Z,44.79
2022-12-03T12:07:57.582Z,45.34
2022-12-03T12:10:48.155Z,44.72
2022-12-03T12:13:44.559Z,44.93
2022-12-03T12:16:12.452Z,44.72
2022-12-03T12:18:46.104Z,44.80
2022-12-03T12:21:42.446Z,44.78
2022-12-03T12:24:41.015Z,45.01
2022-12-03T12:27:11.584Z,45.03
2022-12-03T12:29:41.240Z,44.47
2022-12-03T12:32:17.453Z,44.20
2022-12-03T12:34:58.917Z,44.64
2022-12-03T12:37:26.498Z,44.43
2022-12-03T12:39:57.377Z,44.63
2022-12-03T12:42:33.366Z,44.70
2022-12-03T12:45:18.368Z,44.50
2022-12-03T12:47:57.824Z,44.56
2022-12-03T12:50:25.359Z,44.79
2022-12-03T12:52:57.242Z,44.32
2022-12-03T12:55:26.525Z,44.67
2022-12-03T12:57:57.366Z,45.43
2022-12-03T13:00:25.009Z,45.18
2022-12-03T13:03:00.342Z,45.21
2022-12-03T13:05:38.876Z,45.21
2022-12-03T13:08:26.573Z,44.80
2022-12-03T13:10:56.311Z,45.26
2022-12-03T13:13:26.941Z,44.78
2022-12-03T13:16:00.461Z,44.92
2022-12-03T13:18:38.813Z,45.84
2022-12-03T13:21:23.608Z,45.41
2022-12-03T13:23:56.694Z,45.90
2022-12-03T13:26:46.320Z,45.88
2022-12-03T13:29:19.722Z,46.21
2022-12-03T13:31:53.355Z,45.41
2022-12-03T13:34:26.890Z,45.91
2022-12-03T13:36:58.434Z,46.43
2022-12-03T13:39:35.764Z,46.12
2022-12-03T13:42:33.605Z,46.02
2022-12-03T13:45:06.756Z,46.48
2022-12-03T13:47:34.119Z,46.72
2022-12-03T13:50:05.804Z,46.09
2022-12-03T13:52:35.194Z,46.85
2022-12-03T13:55:04.375Z,47.43
2022-12-03T13:57:31.821Z,46.37
2022-12-03T13:59:59.492Z,46.46
2022-12-03T14:02:26.877Z,46.65
2022-12-03T14:05:00.083Z,46.55
2022-12-03T14:07:28.084Z,46.85
2022-12-03T14:09:55.928Z,46.85
2022-12-03T14:12:26.608Z,46.66
2022-12-03T14:14:54.450Z,47.10
2022-12-03T14:17:21.947Z,46.68
2022-12-03T14:19:49.376Z,46.58
2022-12-03T14:22:19.062Z,46.89
2022-12-03T14:24:46.484Z,47.04
2022-12-03T14:27:13.999Z,47.10
2022-12-03T14:29:41.599Z,47.54
2022-12-03T14:32:09.163Z,47.32
2022-12-03T14:34:36.686Z,47.73
2022-12-03T14:37:04.370Z,47.79
2022-12-03T14:39:31.835Z,47.55
2022-12-03T14:42:14.623Z,48.52
2022-12-03T14:44:48.038Z,48.30
2022-12-03T14:47:26.851Z,48.38
2022-12-03T14:50:14.649Z,48.17
2022-12-03T14:52:42.134Z,48.58
2022-12-03T14:55:09.825Z,48.31
2022-12-03T14:57:37.688Z,48.51
2022-12-03T15:00:07.119Z,47.75
2022-12-03T15:02:34.653Z,48.50
2022-12-03T15:05:02.397Z,48.39
2022-12-03T15:07:32.245Z,47.72
2022-12-03T15:10:00.311Z,47.80
2022-12-03T15:12:27.760Z,47.45
2022-12-03T15:14:55.289Z,47.99
2022-12-03T15:17:30.946Z,47.31
2022-12-03T15:19:59.652Z,47.45
2022-12-03T15:22:27.094Z,47.22
2022-12-03T15:24:54.836Z,47.25
2022-12-03T15:27:22.306Z,47.07
2022-12-03T15:29:49.939Z,47.01
2022-12-03T15:32:17.347Z,47.42
2022-12-03T15:34:44.940Z,46.49
2022-12-03T15:37:12.449Z,46.54
2022-12-03T15:39:52.786Z,46.87
2022-12-03T15:42:20.421Z,46.56
2022-12-03T15:44:47.881Z,46.81
2022-12-03T15:47:15.458Z,47.02
2022-12-03T15:49:42.959Z,47.04
2022-12-03T15:52:10.469Z,47.46
2022-12-03T15:54:37.945Z,46.84
2022-12-03T15:59:56.276Z,47.54
2022-12-03T16:02:24.205Z,46.89
2022-12-03T16:04:51.937Z,47.24
2022-12-03T16:07:19.288Z,47.37
2022-12-03T16:09:46.859Z,47.53
2022-12-03T16:12:14.364Z,47.09
2022-12-03T16:14:41.947Z,47.54
2022-12-03T16:17:28.639Z,47.01
2022-12-03T16:19:56.361Z,47.37
2022-12-03T16:22:24.338Z,47.33
2022-12-03T16:24:51.859Z,47.84
2022-12-03T16:27:24.036Z,47.45
2022-12-03T16:32:43.710Z,47.78
2022-12-03T16:35:11.889Z,48.27
2022-12-03T16:37:39.544Z,48.01
2022-12-03T16:40:07.727Z,48.55
2022-12-03T16:42:37.332Z,48.46
2022-12-03T16:45:08.387Z,49.28
2022-12-03T16:50:54.057Z,49.66
2022-12-03T16:53:21.479Z,49.90
2022-12-03T16:55:49.066Z,49.82
2022-12-03T16:58:18.975Z,49.80
2022-12-03T17:00:46.517Z,50.18
2022-12-03T17:03:13.980Z,50.27
2022-12-03T17:05:41.729Z,49.95
2022-12-03T17:08:09.361Z,49.63
2022-12-03T17:10:37.168Z,49.67
2022-12-03T17:13:09.759Z,49.99
2022-12-03T17:15:38.468Z,49.99
2022-12-03T17:18:06.496Z,49.69
2022-12-03T17:20:34.956Z,49.95
2022-12-03T17:23:03.034Z,49.63
2022-12-03T17:25:30.802Z,50.25
2022-12-03T17:27:58.267Z,49.32
2022-12-03T17:30:25.817Z,50.02
2022-12-03T17:32:53.241Z,50.39
2022-12-03T17:35:20.884Z,49.93
2022-12-03T17:37:48.352Z,49.77
2022-12-03T17:40:17.485Z,49.12
2022-12-03T17:42:45.005Z,49.27
2022-12-03T17:47:54.618Z,49.15
2022-12-03T17:50:22.090Z,49.18
2022-12-03T17:52:49.661Z,49.99
2022-12-03T17:55:26.785Z,49.51
2022-12-03T17:58:01.289Z,49.20
2022-12-03T18:00:29.240Z,49.41
2022-12-03T18:03:08.325Z,49.54
2022-12-03T18:05:36.430Z,50.21
2022-12-03T18:08:04.215Z,49.56
2022-12-03T18:10:31.722Z,50.40
2022-12-03T18:13:01.934Z,50.12
2022-12-03T18:15:30.747Z,49.68
2022-12-03T18:17:58.349Z,50.09
2022-12-03T18:20:25.807Z,49.68
2022-12-03T18:22:53.424Z,50.51
2022-12-03T18:25:20.899Z,50.90
2022-12-03T18:27:48.660Z,50.71
2022-12-03T18:30:16.161Z,50.99
2022-12-03T18:32:43.621Z,51.17
2022-12-03T18:35:11.180Z,50.87
2022-12-03T18:37:38.846Z,51.21
2022-12-03T18:40:12.873Z,50.15
2022-12-03T18:42:41.049Z,50.68
2022-12-03T18:45:13.162Z,51.68
2022-12-03T18:47:41.167Z,50.68
2022-12-03T18:50:10.561Z,50.48
2022-12-03T18:52:38.607Z,50.52
2022-12-03T18:55:07.318Z,51.25
2022-12-03T18:57:34.896Z,50.67
2022-12-03T19:00:11.928Z,51.27
2022-12-03T19:05:29.071Z,51.64
2022-12-03T19:07:56.880Z,51.17
2022-12-03T19:10:25.462Z,51.51
2022-12-03T19:12:52.908Z,51.11
2022-12-03T19:15:20.514Z,51.36
2022-12-03T19:17:49.549Z,51.31
2022-12-03T19:20:17.077Z,51.40
2022-12-03T19:25:27.149Z,51.18
2022-12-03T19:27:55.404Z,52.17
2022-12-03T19:30:22.932Z,51.98
2022-12-03T19:32:51.883Z,51.67
2022-12-03T19:35:21.565Z,51.48
2022-12-03T19:37:50.164Z,51.79
2022-12-03T19:40:18.115Z,52.04
2022-12-03T19:42:45.624Z,52.54
2022-12-03T19:45:13.245Z,52.38
2022-12-03T19:47:40.728Z,52.30
2022-12-03T19:50:08.999Z,52.44
2022-12-03T19:52:37.129Z,52.61
2022-12-03T19:55:05.473Z,52.14
2022-12-03T19:57:33.118Z,52.80
2022-12-03T20:00:01.373Z,52.63
2022-12-03T20:02:29.309Z,52.56
2022-12-03T20:04:57.106Z,52.85
2022-12-03T20:07:24.530Z,52.99
2022-12-03T20:09:52.358Z,53.31
2022-12-03T20:12:20.124Z,52.74
2022-12-03T20:14:47.797Z,52.66
2022-12-03T20:17:15.225Z,52.93
2022-12-03T20:19:42.775Z,52.78
2022-12-03T20:22:10.252Z,53.73
2022-12-03T20:24:37.909Z,53.75
2022-12-03T20:27:05.629Z,53.61
2022-12-03T20:29:33.097Z,53.71
2022-12-03T20:32:04.165Z,53.74
2022-12-03T20:34:32.464Z,53.39
2022-12-03T20:36:59.950Z,53.45
2022-12-03T20:39:27.469Z,54.09
2022-12-03T20:41:54.995Z,54.07
2022-12-03T20:44:22.679Z,54.09
2022-12-03T20:46:50.080Z,54.37
2022-12-03T20:49:17.550Z,55.04
2022-12-03T20:51:45.466Z,54.08
2022-12-03T20:54:12.983Z,54.09
2022-12-03T20:56:42.240Z,54.21
2022-12-03T20:59:12.307Z,54.90
2022-12-03T21:01:40.671Z,54.36
2022-12-03T21:04:09.488Z,55.04
2022-12-03T21:06:38.026Z,54.48
2022-12-03T21:11:51.112Z,54.63
2022-12-03T21:17:08.542Z,53.87
2022-12-03T21:19:37.440Z,54.11
2022-12-03T21:22:18.553Z,54.92
2022-12-03T21:24:46.242Z,54.80
2022-12-03T21:27:17.083Z,54.95
2022-12-03T21:29:48.775Z,54.63
2022-12-03T21:32:16.224Z,55.36
2022-12-03T21:34:43.672Z,54.93
2022-12-03T21:37:11.049Z,55.06
2022-12-03T21:39:38.682Z,54.42
2022-12-03T21:42:34.920Z,54.44
2022-12-03T21:44:54.083Z,53.81
2022-12-03T21:47:21.613Z,54.51
2022-12-03T21:49:49.172Z,54.08
2022-12-03T21:52:16.672Z,53.63
2022-12-03T21:54:44.286Z,54.38
2022-12-03T21:57:11.751Z,54.58
2022-12-03T21:59:39.467Z,54.82
2022-12-03T22:02:07.186Z,54.09
2022-12-03T22:04:34.990Z,54.72
2022-12-03T22:07:03.633Z,54.82
2022-12-03T22:09:32.351Z,54.25
2022-12-03T22:12:01.170Z,54.29
2022-12-03T22:14:29.140Z,55.14
2022-12-03T22:16:56.768Z,54.62
2022-12-03T22:19:25.138Z,55.37
2022-12-03T22:21:53.192Z,55.86
2022-12-03T22:24:20.649Z,55.68
2022-12-03T22:26:48.129Z,55.70
2022-12-03T22:29:16.214Z,55.55
2022-12-03T22:31:45.987Z,54.94
2022-12-03T22:34:13.884Z,56.02
2022-12-03T22:36:41.418Z,55.79
2022-12-03T22:39:09.114Z,56.56
2022-12-03T22:41:36.447Z,55.64
2022-12-03T22:44:04.141Z,55.99
2022-12-03T22:46:31.865Z,55.72
2022-12-03T22:49:04.966Z,55.61
2022-12-03T22:51:34.980Z,55.60
2022-12-03T22:54:02.612Z,55.55
2022-12-03T22:56:30.932Z,55.61
2022-12-03T22:58:58.812Z,56.90
2022-12-03T23:01:31.935Z,56.22
2022-12-03T23:04:00.581Z,56.45
2022-12-03T23:06:28.949Z,55.84
2022-12-03T23:08:57.662Z,56.00
2022-12-03T23:11:25.941Z,55.59
2022-12-03T23:13:54.108Z,55.66
2022-12-03T23:16:28.360Z,55.94
2022-12-03T23:18:57.395Z,56.18
2022-12-03T23:21:29.774Z,56.25
2022-12-03T23:24:02.548Z,56.29
2022-12-03T23:26:30.176Z,55.83
2022-12-03T23:28:57.696Z,56.12
2022-12-03T23:31:28.021Z,56.06
2022-12-03T23:33:57.106Z,56.01
2022-12-03T23:36:26.500Z,55.73
2022-12-03T23:38:54.844Z,56.48
2022-12-03T23:41:23.512Z,56.31
2022-12-03T23:43:51.411Z,56.38
2022-12-03T23:49:21.451Z,57.05
2022-12-03T23:51:49.287Z,57.27
2022-12-03T23:54:16.763Z,57.25
2022-12-03T23:56:44.260Z,57.22
2022-12-03T23:59:12.075Z,56.45
